createdAt,value
2022-11-06T00:04:35.072Z,9.21
2022-11-06T00:09:38.937Z,9.19
2022-11-06T00:14:42.798Z,9.21
2022-11-06T00:19:44.438Z,9.20
2022-11-06T00:24:49.488Z,9.21
2022-11-06T00:29:51.177Z,9.23
2022-11-06T00:34:52.813Z,9.25
2022-11-06T00:39:56.840Z,9.26
2022-11-06T00:45:01.797Z,9.27
2022-11-06T00:50:08.409Z,9.30
2022-11-06T00:55:15.176Z,9.29
2022-11-06T01:00:18.210Z,9.30
2022-11-06T01:05:21.013Z,9.31
2022-11-06T01:10:25.264Z,9.31
2022-11-06T01:15:29.504Z,9.31
2022-11-06T01:20:33.531Z,9.32
2022-11-06T01:25:35.178Z,9.25
2022-11-06T01:30:39.663Z,9.16
2022-11-06T01:35:47.197Z,9.16
2022-11-06T01:40:49.547Z,9.19
2022-11-06T01:45:56.017Z,9.21
2022-11-06T01:51:02.130Z,9.20
2022-11-06T01:56:08.648Z,9.23
2022-11-06T02:01:13.497Z,9.19
2022-11-06T02:06:18.321Z,9.16
2022-11-06T02:11:25.551Z,9.05
2022-11-06T02:16:27.260Z,8.95
2022-11-06T02:21:50.303Z,8.87
2022-11-06T02:27:33.235Z,8.74
2022-11-06T02:32:52.658Z,8.66
2022-11-06T02:38:00.620Z,8.61
2022-11-06T02:43:07.485Z,8.58
2022-11-06T02:48:12.508Z,8.52
2022-11-06T02:53:18.630Z,8.49
2022-11-06T02:58:33.641Z,8.46
2022-11-06T03:03:41.358Z,8.43
2022-11-06T03:08:50.051Z,8.44
2022-11-06T03:14:11.715Z,8.40
2022-11-06T03:19:37.507Z,8.36
2022-11-06T03:24:46.929Z,8.33
2022-11-06T03:29:58.110Z,8.28
2022-11-06T03:35:20.472Z,8.25
2022-11-06T03:40:31.460Z,8.22
2022-11-06T03:45:40.716Z,8.20
2022-11-06T03:50:56.294Z,8.17
2022-11-06T03:56:08.264Z,8.17
2022-11-06T04:01:11.466Z,8.14
2022-11-06T04:06:26.928Z,8.11
2022-11-06T04:11:48.703Z,8.10
2022-11-06T04:16:55.525Z,8.08
2022-11-06T04:22:12.427Z,8.08
2022-11-06T04:27:32.675Z,8.07
2022-11-06T04:32:44.240Z,8.07
2022-11-06T04:38:03.505Z,8.05
2022-11-06T04:43:15.022Z,8.05
2022-11-06T04:48:22.457Z,8.05
2022-11-06T04:53:29.389Z,8.06
2022-11-06T04:58:36.380Z,8.06
2022-11-06T05:03:39.298Z,8.06
2022-11-06T05:08:48.049Z,8.06
2022-11-06T05:13:52.066Z,8.07
2022-11-06T05:18:59.056Z,8.08
2022-11-06T05:24:06.297Z,8.11
2022-11-06T05:29:11.486Z,8.10
2022-11-06T05:34:16.249Z,8.10
2022-11-06T05:39:17.920Z,8.10
2022-11-06T05:44:21.930Z,8.10
2022-11-06T05:49:23.552Z,8.09
2022-11-06T05:54:30.215Z,8.08
2022-11-06T05:59:36.635Z,8.08
2022-11-06T06:04:38.305Z,8.10
2022-11-06T06:09:44.566Z,8.11
2022-11-06T06:14:50.580Z,8.10
2022-11-06T06:19:59.357Z,8.11
2022-11-06T06:25:07.605Z,8.11
2022-11-06T06:30:18.895Z,8.11
2022-11-06T06:35:22.950Z,8.13
2022-11-06T06:40:27.379Z,8.13
2022-11-06T06:45:29.076Z,8.14
2022-11-06T06:50:33.025Z,8.16
2022-11-06T06:55:36.772Z,8.17
2022-11-06T07:00:41.759Z,8.20
2022-11-06T07:05:48.420Z,8.17
2022-11-06T07:10:50.082Z,8.21
2022-11-06T07:15:55.126Z,8.22
2022-11-06T07:20:59.262Z,8.28
2022-11-06T07:26:01.191Z,8.30
2022-11-06T07:31:06.334Z,8.33
2022-11-06T07:36:12.924Z,8.37
2022-11-06T07:41:17.331Z,8.40
2022-11-06T07:46:23.937Z,8.48
2022-11-06T07:51:25.820Z,8.57
2022-11-06T07:56:27.570Z,8.59
2022-11-06T08:01:31.818Z,8.65
2022-11-06T08:06:34.749Z,8.71
2022-11-06T08:11:38.662Z,8.77
2022-11-06T08:16:40.807Z,8.82
2022-11-06T08:21:42.594Z,8.85
2022-11-06T08:26:50.409Z,8.92
2022-11-06T08:31:56.745Z,9.00
2022-11-06T08:37:03.557Z,9.02
2022-11-06T08:42:09.986Z,9.10
2022-11-06T08:47:11.686Z,9.16
2022-11-06T08:52:15.647Z,9.20
2022-11-06T08:57:19.759Z,9.24
2022-11-06T09:02:23.911Z,9.29
2022-11-06T09:07:31.139Z,9.35
2022-11-06T09:12:33.978Z,9.43
2022-11-06T09:17:45.748Z,9.77
2022-11-06T09:22:47.693Z,9.75
2022-11-06T09:27:58.569Z,9.73
2022-11-06T09:33:02.462Z,9.77
2022-11-06T09:38:11.749Z,9.78
2022-11-06T09:43:50.117Z,9.80
2022-11-06T09:49:11.879Z,9.82
2022-11-06T09:54:26.494Z,9.88
2022-11-06T09:59:35.741Z,9.93
2022-11-06T10:04:45.919Z,10.06
2022-11-06T10:09:52.608Z,10.21
2022-11-06T10:15:20.132Z,10.35
2022-11-06T10:20:32.104Z,10.56
2022-11-06T10:25:45.838Z,10.70
2022-11-06T10:31:01.901Z,10.79
2022-11-06T10:36:12.067Z,10.87
2022-11-06T10:41:20.272Z,10.98
2022-11-06T10:46:41.155Z,11.01
2022-11-06T10:51:56.603Z,11.13
2022-11-06T10:57:06.928Z,11.29
2022-11-06T11:02:25.386Z,11.50
2022-11-06T11:07:37.802Z,11.79
2022-11-06T11:12:47.599Z,11.96
2022-11-06T11:18:08.405Z,12.23
2022-11-06T11:23:26.010Z,12.26
2022-11-06T11:28:33.361Z,12.14
2022-11-06T11:33:35.550Z,12.08
2022-11-06T11:38:42.760Z,11.94
2022-11-06T11:44:06.204Z,11.84
2022-11-06T11:49:26.721Z,11.90
2022-11-06T11:54:33.815Z,12.06
2022-11-06T11:59:45.274Z,12.18
2022-11-06T12:04:59.996Z,13.09
2022-11-06T12:10:20.573Z,12.92
2022-11-06T12:15:24.074Z,12.92
2022-11-06T12:20:40.330Z,12.94
2022-11-06T12:25:43.215Z,12.69
2022-11-06T12:30:50.926Z,12.48
2022-11-06T12:36:01.746Z,12.33
2022-11-06T12:41:26.332Z,12.30
2022-11-06T12:46:52.355Z,12.31
2022-11-06T12:52:09.273Z,12.29
2022-11-06T12:57:39.607Z,12.38
2022-11-06T13:03:00.026Z,12.50
2022-11-06T13:08:13.517Z,12.64
2022-11-06T13:13:26.312Z,12.80
2022-11-06T13:18:39.952Z,12.89
2022-11-06T13:23:51.396Z,12.89
2022-11-06T13:28:57.740Z,12.86
2022-11-06T13:34:05.390Z,12.82
2022-11-06T13:39:13.902Z,12.97
2022-11-06T13:44:20.064Z,13.06
2022-11-06T13:49:41.754Z,13.06
2022-11-06T13:55:07.104Z,13.09
2022-11-06T14:00:19.789Z,12.91
2022-11-06T14:05:46.396Z,12.68
2022-11-06T14:11:03.839Z,12.46
2022-11-06T14:16:21.931Z,12.32
2022-11-06T14:21:29.846Z,12.26
2022-11-06T14:26:51.143Z,12.25
2022-11-06T14:32:00.032Z,12.19
2022-11-06T14:37:30.589Z,12.11
2022-11-06T14:42:36.033Z,12.08
2022-11-06T14:47:42.732Z,12.06
2022-11-06T14:52:50.977Z,12.05
2022-11-06T14:57:57.274Z,12.02
2022-11-06T15:03:08.467Z,11.99
2022-11-06T15:08:12.514Z,11.95
2022-11-06T15:13:21.076Z,11.93
2022-11-06T15:18:24.949Z,11.90
2022-11-06T15:23:46.552Z,12.16
2022-11-06T15:28:56.568Z,12.04
2022-11-06T15:34:10.756Z,11.94
2022-11-06T15:39:24.212Z,11.88
2022-11-06T15:44:28.364Z,11.83
2022-11-06T15:49:32.315Z,11.79
2022-11-06T15:54:41.345Z,11.73
2022-11-06T15:59:45.469Z,11.69
2022-11-06T16:04:49.267Z,11.65
2022-11-06T16:09:53.605Z,11.62
2022-11-06T16:14:57.590Z,11.58
2022-11-06T16:20:04.358Z,11.52
2022-11-06T16:25:07.331Z,11.48
2022-11-06T16:30:25.106Z,11.43
2022-11-06T16:35:38.460Z,11.38
2022-11-06T16:41:01.625Z,11.33
2022-11-06T16:46:12.394Z,11.25
2022-11-06T16:56:48.304Z,11.12
2022-11-06T17:01:52.824Z,11.07
2022-11-06T17:06:54.781Z,11.05
2022-11-06T17:12:09.496Z,11.02
2022-11-06T17:17:25.866Z,10.97
2022-11-06T17:22:35.652Z,10.91
2022-11-06T17:27:37.392Z,10.88
2022-11-06T17:32:41.982Z,10.84
2022-11-06T17:37:43.635Z,10.80
2022-11-06T17:42:45.455Z,10.79
2022-11-06T17:47:48.489Z,10.78
2022-11-06T17:52:50.196Z,10.76
2022-11-06T17:57:54.577Z,10.75
2022-11-06T18:03:02.401Z,10.75
2022-11-06T18:08:07.729Z,10.75
2022-11-06T18:13:09.483Z,10.76
2022-11-06T18:18:11.362Z,10.73
2022-11-06T18:23:21.539Z,10.66
2022-11-06T18:28:25.278Z,10.62
2022-11-06T18:33:29.609Z,10.59
2022-11-06T18:38:32.389Z,10.52
2022-11-06T18:43:34.134Z,10.40
2022-11-06T18:48:38.595Z,10.26
2022-11-06T18:53:42.778Z,9.95
2022-11-06T18:58:49.923Z,9.61
2022-11-06T19:03:56.404Z,9.36
2022-11-06T19:09:01.347Z,9.21
2022-11-06T19:14:05.960Z,9.10
2022-11-06T19:19:11.436Z,9.01
2022-11-06T19:24:15.722Z,8.91
2022-11-06T19:29:18.416Z,8.86
2022-11-06T19:34:25.561Z,8.78
2022-11-06T19:39:29.577Z,8.74
2022-11-06T19:44:34.238Z,8.70
2022-11-06T19:49:36.134Z,8.66
2022-11-06T19:54:40.548Z,8.62
2022-11-06T19:59:47.653Z,8.56
2022-11-06T20:04:56.685Z,8.48
2022-11-06T20:10:03.816Z,8.44
2022-11-06T20:15:05.950Z,8.39
2022-11-06T20:20:13.357Z,8.35
2022-11-06T20:25:18.447Z,8.32
2022-11-06T20:30:22.462Z,8.29
2022-11-06T20:35:37.918Z,8.28
2022-11-06T20:40:43.055Z,8.28
2022-11-06T20:45:46.179Z,8.28
2022-11-06T20:51:09.137Z,8.31
2022-11-06T20:56:13.254Z,8.32
2022-11-06T21:01:23.078Z,8.32
2022-11-06T21:06:28.807Z,8.34
2022-11-06T21:11:35.180Z,8.46
2022-11-06T21:16:37.407Z,8.43
2022-11-06T21:21:39.121Z,8.30
2022-11-06T21:26:40.804Z,8.25
2022-11-06T21:31:49.027Z,8.25
2022-11-06T21:36:51.145Z,8.22
2022-11-06T21:41:52.857Z,8.19
2022-11-06T21:46:56.991Z,8.16
2022-11-06T21:52:25.112Z,8.15
2022-11-06T21:57:30.268Z,8.05
2022-11-06T22:02:32.086Z,8.07
2022-11-06T22:07:33.941Z,8.12
2022-11-06T22:12:35.609Z,8.20
2022-11-06T22:17:40.453Z,8.30
2022-11-06T22:22:42.119Z,8.34
2022-11-06T22:27:46.001Z,8.40
2022-11-06T22:32:53.089Z,8.44
2022-11-06T22:37:54.715Z,8.51
2022-11-06T22:42:58.807Z,8.57
2022-11-06T22:48:00.734Z,8.61
2022-11-06T22:53:09.506Z,8.65
2022-11-06T22:58:15.405Z,8.72
2022-11-06T23:03:17.908Z,8.77
2022-11-06T23:08:22.645Z,8.82
2022-11-06T23:13:24.591Z,8.86
2022-11-06T23:18:26.228Z,8.90
2022-11-06T23:23:28.798Z,8.97
2022-11-06T23:28:31.536Z,9.03
2022-11-06T23:33:35.662Z,9.10
2022-11-06T23:38:39.909Z,9.12
2022-11-06T23:43:43.545Z,9.15
2022-11-06T23:48:45.284Z,9.18
2022-11-06T23:53:52.619Z,9.24
2022-11-06T23:58:59.559Z,9.29
